< < Back
Terminal Aerodrome Forecast


Current Version              Previous Versions:   1  2  3  4  5  6  7  8  9  

Terminal Aerodrome Forecast

639
FTUS42 KJAX 291120
TAFSSI
TAF
KSSI 291120Z 2912/3012 00000KT P6SM SCT015 BKN250
      TEMPO 2912/2914 BKN015
     FM291400 34005KT P6SM SCT030
     FM291600 07009KT P6SM VCSH BKN040
     FM292000 11007KT P6SM SCT050 BKN250=

Latest METAR

164
SAUS70 KWBC 292000 RRI
MTRSSI
METAR KSSI 291953Z AUTO 07011KT 10SM CLR 31/23 A2993 RMK AO2 SLP135
T03060233


USA.gov is the U.S. government's official web portal to all federal, state and local government web resources and services.